createdAt,value
2018-09-21T00:01:02.478Z,100704.69
2018-09-21T00:03:30.211Z,100695.13
2018-09-21T00:05:58.151Z,100689.36
2018-09-21T00:08:26.038Z,100682.37
2018-09-21T00:10:53.708Z,100687.97
2018-09-21T00:13:21.766Z,100679.28
2018-09-21T00:15:49.474Z,100678.41
2018-09-21T00:18:17.406Z,100670.16
2018-09-21T00:20:45.049Z,100667.52
2018-09-21T00:23:12.677Z,100664.88
2018-09-21T00:25:40.352Z,100661.79
2018-09-21T00:28:08.017Z,100655.25
2018-09-21T00:30:35.658Z,100651.67
2018-09-21T00:33:03.670Z,100644.69
2018-09-21T00:35:31.254Z,100637.28
2018-09-21T00:37:58.893Z,100635.03
2018-09-21T00:40:26.698Z,100632.48
2018-09-21T00:42:54.346Z,100634.70
2018-09-21T00:45:21.966Z,100637.34
2018-09-21T00:47:50.035Z,100629.91
2018-09-21T00:50:17.661Z,100628.58
2018-09-21T00:52:45.597Z,100635.57
2018-09-21T00:55:13.262Z,100631.67
2018-09-21T00:57:40.869Z,100620.73
2018-09-21T01:00:08.516Z,100618.59
2018-09-21T01:02:36.163Z,100611.61
2018-09-21T01:05:03.856Z,100618.70
2018-09-21T01:07:31.538Z,100612.99
2018-09-21T01:09:59.167Z,100606.81
2018-09-21T01:12:27.118Z,100611.67
2018-09-21T01:14:55.161Z,100604.23
2018-09-21T01:17:22.794Z,100603.37
2018-09-21T01:19:50.837Z,100594.61
2018-09-21T01:22:18.490Z,100592.74
2018-09-21T01:24:46.259Z,100590.55
2018-09-21T01:27:14.706Z,100580.92
2018-09-21T01:29:42.910Z,100578.34
2018-09-21T01:32:10.698Z,100569.17
2018-09-21T01:34:38.359Z,100567.47
2018-09-21T01:37:06.046Z,100569.27
2018-09-21T01:39:34.081Z,100569.33
2018-09-21T01:42:01.993Z,100572.81
2018-09-21T01:44:29.631Z,100565.38
2018-09-21T01:46:57.635Z,100571.10
2018-09-21T01:49:25.312Z,100568.08
2018-09-21T01:51:53.501Z,100563.31
2018-09-21T01:54:22.038Z,100548.34
2018-09-21T01:56:49.648Z,100542.13
2018-09-21T01:59:17.296Z,100546.57
2018-09-21T02:01:45.357Z,100538.66
2018-09-21T02:04:12.977Z,100526.36
2018-09-21T02:06:40.670Z,100516.67
2018-09-21T02:09:09.596Z,100517.12
2018-09-21T02:11:37.731Z,100503.02
2018-09-21T02:14:05.477Z,100507.37
2018-09-21T02:16:33.503Z,100502.53
2018-09-21T02:19:01.130Z,100505.11
2018-09-21T02:21:28.790Z,100500.70
2018-09-21T02:23:56.480Z,100488.02
2018-09-21T02:26:24.174Z,100488.95
2018-09-21T02:28:52.090Z,100488.44
2018-09-21T02:31:19.739Z,100485.86
2018-09-21T02:33:47.443Z,100479.66
2018-09-21T02:36:15.471Z,100477.08
2018-09-21T02:38:43.158Z,100473.50
2018-09-21T02:41:10.801Z,100462.56
2018-09-21T02:43:38.525Z,100461.17
2018-09-21T02:46:06.465Z,100458.09
2018-09-21T02:48:34.498Z,100455.52
2018-09-21T02:51:02.140Z,100445.86
2018-09-21T02:53:29.826Z,100436.61
2018-09-21T02:55:58.162Z,100429.56
2018-09-21T02:58:25.854Z,100410.64
2018-09-21T03:00:53.630Z,100405.42
2018-09-21T03:03:21.210Z,100395.81
2018-09-21T03:05:48.881Z,100386.09
2018-09-21T03:08:16.542Z,100382.13
2018-09-21T03:10:44.229Z,100387.89
2018-09-21T03:13:11.962Z,100384.38
2018-09-21T03:15:39.962Z,100390.59
2018-09-21T03:18:07.670Z,100373.89
2018-09-21T03:20:35.326Z,100370.00
2018-09-21T03:23:03.237Z,100355.10
2018-09-21T03:25:31.410Z,100351.14
2018-09-21T03:27:59.472Z,100351.20
2018-09-21T03:30:27.114Z,100343.68
2018-09-21T03:32:55.132Z,100338.40
2018-09-21T03:35:23.390Z,100338.02
2018-09-21T03:37:51.017Z,100340.66
2018-09-21T03:40:18.665Z,100325.76
2018-09-21T03:42:46.327Z,100316.06
2018-09-21T03:45:14.276Z,100306.34
2018-09-21T03:47:42.043Z,100306.34
2018-09-21T03:50:09.792Z,100298.92
2018-09-21T03:52:37.689Z,100294.55
2018-09-21T03:55:05.965Z,100283.53
2018-09-21T03:57:33.681Z,100273.91
2018-09-21T04:00:01.892Z,100266.38
2018-09-21T04:02:29.522Z,100260.72
2018-09-21T04:04:57.505Z,100251.48
2018-09-21T04:07:25.191Z,100243.16
2018-09-21T04:09:53.214Z,100236.55
2018-09-21T04:12:20.893Z,100236.55
2018-09-21T04:14:48.887Z,100233.47
2018-09-21T04:17:16.579Z,100227.32
2018-09-21T04:19:44.261Z,100217.25
2018-09-21T04:22:11.908Z,100228.64
2018-09-21T04:24:39.908Z,100218.50
2018-09-21T04:27:07.645Z,100213.67
2018-09-21T04:29:35.521Z,100196.07
2018-09-21T04:32:03.182Z,100193.74
2018-09-21T04:34:30.898Z,100181.86
2018-09-21T04:36:58.532Z,100178.92
2018-09-21T04:39:26.437Z,100163.98
2018-09-21T04:41:54.596Z,100150.41
2018-09-21T04:44:22.310Z,100153.05
2018-09-21T04:46:51.030Z,100139.48
2018-09-21T04:49:18.645Z,100135.91
2018-09-21T04:51:46.569Z,100132.43
2018-09-21T04:54:14.281Z,100131.56
2018-09-21T04:56:41.911Z,100128.55
2018-09-21T04:59:09.606Z,100120.14
2018-09-21T05:01:37.352Z,100111.39
2018-09-21T05:04:05.095Z,100112.71
2018-09-21T05:06:32.714Z,100104.62
2018-09-21T05:09:00.340Z,100099.75
2018-09-21T05:11:28.074Z,100094.17
2018-09-21T05:13:55.992Z,100093.23
2018-09-21T05:16:23.617Z,100085.77
2018-09-21T05:18:51.516Z,100081.81
2018-09-21T05:21:19.152Z,100078.72
2018-09-21T05:23:47.310Z,100073.44
2018-09-21T05:26:16.344Z,100069.41
2018-09-21T05:28:43.970Z,100063.19
2018-09-21T05:31:12.199Z,100071.41
2018-09-21T05:33:40.474Z,100066.89
2018-09-21T05:36:08.080Z,100063.27
2018-09-21T05:38:36.062Z,100072.41
2018-09-21T05:41:04.321Z,100068.30
2018-09-21T05:43:32.208Z,100061.62
2018-09-21T05:46:00.017Z,100061.62
2018-09-21T05:48:27.676Z,100053.70
2018-09-21T05:50:55.410Z,100046.54
2018-09-21T05:53:23.117Z,100049.59
2018-09-21T05:55:50.830Z,100040.73
2018-09-21T05:58:18.583Z,100027.53
2018-09-21T06:00:46.207Z,100028.48
2018-09-21T06:03:13.908Z,100029.39
2018-09-21T06:05:41.936Z,100028.48
2018-09-21T06:08:09.872Z,100017.43
2018-09-21T06:10:37.542Z,100014.34
2018-09-21T06:13:05.213Z,99998.50
2018-09-21T06:15:33.218Z,99965.89
2018-09-21T06:18:01.211Z,99957.14
2018-09-21T06:20:28.876Z,99960.67
2018-09-21T06:22:56.573Z,99961.80
2018-09-21T06:25:24.589Z,99956.85
2018-09-21T06:27:52.314Z,99951.45
2018-09-21T06:30:19.978Z,99941.39
2018-09-21T06:32:47.938Z,99936.86
2018-09-21T06:35:15.573Z,99946.32
2018-09-21T06:37:43.487Z,99950.58
2018-09-21T06:40:11.130Z,99945.30
2018-09-21T06:42:38.776Z,99929.08
2018-09-21T06:47:40.876Z,99921.61
2018-09-21T06:50:08.555Z,99937.45
2018-09-21T06:52:36.236Z,99917.95
2018-09-21T06:55:03.918Z,99920.50
2018-09-21T06:57:31.845Z,99926.65
2018-09-21T06:59:59.649Z,99926.08
2018-09-21T07:02:27.674Z,99922.13
2018-09-21T07:05:00.220Z,99929.21
2018-09-21T07:07:27.870Z,99922.23
2018-09-21T07:09:55.616Z,99924.01
2018-09-21T07:12:23.254Z,99931.48
2018-09-21T07:14:50.903Z,99927.52
2018-09-21T07:17:18.994Z,99933.55
2018-09-21T07:19:46.637Z,99922.13
2018-09-21T07:22:14.334Z,99914.45
2018-09-21T07:24:42.015Z,99921.34
2018-09-21T07:27:10.027Z,99917.49
2018-09-21T07:29:37.692Z,99907.11
2018-09-21T07:32:05.362Z,99898.19
2018-09-21T07:34:33.289Z,99887.14
2018-09-21T07:37:00.945Z,99882.23
2018-09-21T07:39:28.947Z,99880.91
2018-09-21T07:41:56.745Z,99873.77
2018-09-21T07:44:24.781Z,99859.24
2018-09-21T07:46:52.733Z,99866.22
2018-09-21T07:49:20.620Z,99859.53
2018-09-21T07:51:48.583Z,99857.19
2018-09-21T07:54:16.344Z,99872.57
2018-09-21T07:56:44.346Z,99869.27
2018-09-21T07:59:12.113Z,99871.34
2018-09-21T08:01:40.130Z,99862.42
2018-09-21T08:04:07.815Z,99857.80
2018-09-21T08:06:35.817Z,99842.78
2018-09-21T08:09:04.882Z,99835.72
2018-09-21T08:11:32.527Z,99855.07
2018-09-21T08:14:00.160Z,99833.45
2018-09-21T08:16:28.079Z,99830.27
2018-09-21T08:18:56.198Z,99841.58
2018-09-21T08:21:23.884Z,99851.52
2018-09-21T08:23:51.586Z,99845.94
2018-09-21T08:26:19.337Z,99864.44
2018-09-21T08:28:47.029Z,99870.67
2018-09-21T08:31:14.748Z,99892.35
2018-09-21T08:33:42.710Z,99875.84
2018-09-21T08:36:10.690Z,99867.38
2018-09-21T08:38:38.322Z,99854.73
2018-09-21T08:41:06.344Z,99861.25
2018-09-21T08:43:33.974Z,99874.47
2018-09-21T08:46:01.642Z,99889.63
2018-09-21T08:48:29.266Z,99892.47
2018-09-21T08:50:56.846Z,99894.80
2018-09-21T08:53:24.919Z,99915.64
2018-09-21T08:55:53.132Z,99921.49
2018-09-21T08:58:20.898Z,99917.61
2018-09-21T09:00:48.524Z,99981.10
2018-09-21T09:03:16.289Z,99939.32
2018-09-21T09:05:48.346Z,99952.12
2018-09-21T09:08:16.560Z,99926.11
2018-09-21T09:10:44.469Z,99956.95
2018-09-21T09:13:12.119Z,99961.86
2018-09-21T09:15:39.822Z,99974.28
2018-09-21T09:18:07.755Z,99963.05
2018-09-21T09:20:35.416Z,99973.97
2018-09-21T09:23:03.075Z,99951.69
2018-09-21T09:25:30.799Z,99956.59
2018-09-21T09:27:58.525Z,99967.16
2018-09-21T09:30:26.231Z,99953.00
2018-09-21T09:32:54.245Z,99967.08
2018-09-21T09:35:22.501Z,99983.00
2018-09-21T09:37:50.221Z,100000.33
2018-09-21T09:40:17.885Z,99994.83
2018-09-21T09:42:45.682Z,99999.36
2018-09-21T09:45:13.324Z,100000.88
2018-09-21T09:47:41.294Z,99997.94
2018-09-21T09:50:08.988Z,100001.53
2018-09-21T09:52:36.946Z,99996.25
2018-09-21T09:55:04.639Z,99996.70
2018-09-21T09:57:33.897Z,99998.09
2018-09-21T10:00:01.632Z,100065.20
2018-09-21T10:02:29.316Z,100088.22
2018-09-21T10:04:56.953Z,100059.55
2018-09-21T10:07:24.889Z,100069.47
2018-09-21T10:09:52.719Z,100077.87
2018-09-21T10:12:20.414Z,100069.66
2018-09-21T10:14:48.166Z,100068.11
2018-09-21T10:17:15.870Z,100075.02
2018-09-21T10:19:44.029Z,100095.07
2018-09-21T10:22:11.887Z,100102.38
2018-09-21T10:24:40.294Z,100104.23
2018-09-21T10:27:08.157Z,100105.73
2018-09-21T10:29:35.785Z,100106.71
2018-09-21T10:32:04.037Z,100111.68
2018-09-21T10:34:31.799Z,100109.98
2018-09-21T10:36:59.501Z,100117.91
2018-09-21T10:39:27.440Z,100100.44
2018-09-21T10:41:55.396Z,100108.36
2018-09-21T10:44:23.101Z,100104.85
2018-09-21T10:46:50.943Z,100106.66
2018-09-21T10:49:18.584Z,100108.43
2018-09-21T10:51:46.510Z,100121.24
2018-09-21T10:54:14.541Z,100120.45
2018-09-21T10:56:42.430Z,100143.44
2018-09-21T10:59:10.246Z,100145.52
2018-09-21T11:01:37.907Z,100151.97
2018-09-21T11:04:05.553Z,100157.17
2018-09-21T11:06:33.282Z,100169.43
2018-09-21T11:09:00.901Z,100167.66
2018-09-21T11:11:28.851Z,100155.71
2018-09-21T11:13:56.535Z,100166.95
2018-09-21T11:16:24.509Z,100174.42
2018-09-21T11:18:52.198Z,100199.56
2018-09-21T11:21:20.206Z,100206.31
2018-09-21T11:23:48.330Z,100209.81
2018-09-21T11:26:16.430Z,100193.50
2018-09-21T11:28:44.460Z,100209.64
2018-09-21T11:31:12.177Z,100224.38
2018-09-21T11:33:39.843Z,100204.27
2018-09-21T11:36:07.571Z,100218.71
2018-09-21T11:38:35.223Z,100218.78
2018-09-21T11:41:03.092Z,100229.75
2018-09-21T11:43:30.766Z,100219.20
2018-09-21T11:45:58.453Z,100226.17
2018-09-21T11:48:26.210Z,100231.91
2018-09-21T11:50:53.869Z,100234.09
2018-09-21T11:53:21.605Z,100241.70
2018-09-21T11:55:49.325Z,100247.42
2018-09-21T11:58:17.602Z,100256.52
2018-09-21T12:00:45.697Z,100261.73
2018-09-21T12:03:14.293Z,100233.39
2018-09-21T12:05:42.061Z,100239.61
2018-09-21T12:08:09.800Z,100255.69
2018-09-21T12:10:37.835Z,100257.77
2018-09-21T12:13:05.774Z,100265.93
2018-09-21T12:15:33.836Z,100254.22
2018-09-21T12:18:01.806Z,100270.38
2018-09-21T12:20:29.494Z,100272.70
2018-09-21T12:22:57.380Z,100291.31
2018-09-21T12:25:25.079Z,100270.44
2018-09-21T12:27:52.814Z,100292.53
2018-09-21T12:30:21.092Z,100310.30
2018-09-21T12:32:48.780Z,100290.89
2018-09-21T12:35:16.485Z,100299.13
2018-09-21T12:37:44.605Z,100281.52
2018-09-21T12:40:12.648Z,100288.50
2018-09-21T12:42:40.659Z,100298.05
2018-09-21T12:45:08.329Z,100295.34
2018-09-21T12:47:37.058Z,100308.47
2018-09-21T12:50:05.108Z,100306.31
2018-09-21T12:52:32.830Z,100311.18
2018-09-21T12:55:00.498Z,100317.33
2018-09-21T12:57:28.269Z,100314.86
2018-09-21T12:59:55.958Z,100323.86
2018-09-21T13:02:23.682Z,100335.15
2018-09-21T13:04:51.598Z,100337.79
2018-09-21T13:07:19.266Z,100340.43
2018-09-21T13:09:47.601Z,100335.98
2018-09-21T13:12:18.790Z,100339.18
2018-09-21T13:14:46.446Z,100344.21
2018-09-21T13:17:14.694Z,100341.33
2018-09-21T13:19:42.381Z,100351.95
2018-09-21T13:22:10.075Z,100346.61
2018-09-21T13:24:37.770Z,100336.88
2018-09-21T13:27:05.476Z,100348.11
2018-09-21T13:29:33.709Z,100356.02
2018-09-21T13:32:02.754Z,100359.11
2018-09-21T13:34:30.956Z,100357.86
2018-09-21T13:36:58.621Z,100362.37
2018-09-21T13:39:26.286Z,100361.64
2018-09-21T13:41:53.957Z,100367.23
2018-09-21T13:44:21.598Z,100352.31
2018-09-21T13:46:51.400Z,100360.79
2018-09-21T13:49:19.434Z,100357.04
2018-09-21T13:51:48.188Z,100362.11
2018-09-21T13:54:15.837Z,100378.34
2018-09-21T13:56:43.866Z,100374.69
2018-09-21T13:59:15.240Z,100377.84
2018-09-21T14:01:46.009Z,100385.52
2018-09-21T14:04:14.052Z,100385.38
2018-09-21T14:06:41.948Z,100386.37
2018-09-21T14:09:09.924Z,100380.44
2018-09-21T14:11:39.168Z,100383.45
2018-09-21T14:14:07.182Z,100396.63
2018-09-21T14:16:34.854Z,100416.23
2018-09-21T14:19:02.537Z,100425.66
2018-09-21T14:21:30.615Z,100432.12
2018-09-21T14:23:58.625Z,100420.70
2018-09-21T14:26:26.601Z,100431.22
2018-09-21T14:28:54.313Z,100429.45
2018-09-21T14:31:22.621Z,100428.38
2018-09-21T14:33:50.569Z,100425.87
2018-09-21T14:36:18.705Z,100429.11
2018-09-21T14:38:46.345Z,100427.72
2018-09-21T14:41:14.021Z,100435.66
2018-09-21T14:43:41.950Z,100440.47
2018-09-21T14:46:09.665Z,100443.77
2018-09-21T14:48:37.353Z,100447.25
2018-09-21T14:51:05.316Z,100455.96
2018-09-21T14:53:33.020Z,100472.61
2018-09-21T14:56:00.687Z,100485.44
2018-09-21T14:58:28.336Z,100469.16
2018-09-21T15:00:56.549Z,100470.92
2018-09-21T15:03:24.186Z,100478.59
2018-09-21T15:05:51.854Z,100481.95
2018-09-21T15:08:19.616Z,100477.22
2018-09-21T15:10:47.591Z,100484.75
2018-09-21T15:13:15.389Z,100481.95
2018-09-21T15:15:43.310Z,100468.61
2018-09-21T15:18:11.221Z,100488.11
2018-09-21T15:20:39.175Z,100491.03
2018-09-21T15:23:07.155Z,100494.56
2018-09-21T15:25:34.830Z,100491.56
2018-09-21T15:28:02.509Z,100482.74
2018-09-21T15:30:30.381Z,100500.58
2018-09-21T15:32:58.037Z,100498.21
2018-09-21T15:35:26.065Z,100503.43
2018-09-21T15:37:53.737Z,100507.39
2018-09-21T15:40:21.420Z,100510.16
2018-09-21T15:42:49.360Z,100497.92
2018-09-21T15:45:17.034Z,100522.04
2018-09-21T15:47:44.772Z,100517.20
2018-09-21T15:50:12.868Z,100511.29
2018-09-21T15:52:41.375Z,100518.29
2018-09-21T15:55:09.158Z,100514.63
2018-09-21T15:57:36.835Z,100513.92
2018-09-21T16:00:05.455Z,100516.23
2018-09-21T16:02:33.436Z,100514.06
2018-09-21T16:05:01.092Z,100504.95
2018-09-21T16:07:28.993Z,100521.10
2018-09-21T16:09:56.656Z,100511.52
2018-09-21T16:12:25.666Z,100511.61
2018-09-21T16:14:53.677Z,100516.28
2018-09-21T16:17:21.879Z,100536.94
2018-09-21T16:19:49.560Z,100533.66
2018-09-21T16:22:17.502Z,100530.77
2018-09-21T16:24:45.560Z,100535.11
2018-09-21T16:27:13.485Z,100540.84
2018-09-21T16:29:41.327Z,100535.95
2018-09-21T16:32:08.965Z,100539.45
2018-09-21T16:34:36.678Z,100544.19
2018-09-21T16:37:04.685Z,100545.83
2018-09-21T16:39:32.362Z,100556.23
2018-09-21T16:42:00.423Z,100565.28
2018-09-21T16:44:28.197Z,100577.84
2018-09-21T16:46:55.862Z,100592.16
2018-09-21T16:49:23.551Z,100587.16
2018-09-21T16:51:51.225Z,100584.77
2018-09-21T16:54:18.946Z,100581.09
2018-09-21T16:56:46.864Z,100587.88
2018-09-21T16:59:14.742Z,100574.47
2018-09-21T17:01:42.823Z,100576.40
2018-09-21T17:04:11.413Z,100585.42
2018-09-21T17:06:39.302Z,100590.02
2018-09-21T17:09:09.142Z,100601.67
2018-09-21T17:11:37.864Z,100592.66
2018-09-21T17:14:05.830Z,100601.61
2018-09-21T17:16:33.499Z,100599.58
2018-09-21T17:19:01.317Z,100607.60
2018-09-21T17:21:29.050Z,100608.20
2018-09-21T17:23:56.739Z,100606.18
2018-09-21T17:26:24.391Z,100601.23
2018-09-21T17:28:52.304Z,100618.31
2018-09-21T17:31:19.962Z,100617.59
2018-09-21T17:33:47.966Z,100621.20
2018-09-21T17:36:15.999Z,100627.04
2018-09-21T17:38:45.233Z,100630.27
2018-09-21T17:41:12.966Z,100638.71
2018-09-21T17:43:40.919Z,100637.50
2018-09-21T17:46:09.590Z,100641.52
2018-09-21T17:48:37.868Z,100647.37
2018-09-21T17:51:05.899Z,100657.97
2018-09-21T17:53:34.051Z,100657.63
2018-09-21T17:56:01.970Z,100651.59
2018-09-21T17:58:30.194Z,100661.75
2018-09-21T18:00:58.533Z,100651.73
2018-09-21T18:03:26.110Z,100657.06
2018-09-21T18:05:54.135Z,100654.54
2018-09-21T18:08:21.866Z,100667.31
2018-09-21T18:10:50.052Z,100668.64
2018-09-21T18:13:17.825Z,100669.58
2018-09-21T18:15:45.950Z,100668.77
2018-09-21T18:18:13.628Z,100674.51
2018-09-21T18:20:41.302Z,100674.17
2018-09-21T18:23:10.106Z,100678.63
2018-09-21T18:25:38.723Z,100675.64
2018-09-21T18:28:06.415Z,100679.98
2018-09-21T18:30:34.068Z,100678.76
2018-09-21T18:33:01.723Z,100691.59
2018-09-21T18:35:29.520Z,100689.01
2018-09-21T18:37:57.177Z,100692.14
2018-09-21T18:40:25.177Z,100693.94
2018-09-21T18:42:53.111Z,100696.62
2018-09-21T18:45:21.094Z,100706.33
2018-09-21T18:47:48.889Z,100701.94
2018-09-21T18:50:17.564Z,100725.25
2018-09-21T18:52:45.616Z,100731.02
2018-09-21T18:55:13.270Z,100732.33
2018-09-21T18:57:40.970Z,100735.94
2018-09-21T19:00:08.896Z,100734.27
2018-09-21T19:02:36.629Z,100739.14
2018-09-21T19:05:04.644Z,100732.61
2018-09-21T19:07:33.134Z,100746.22
2018-09-21T19:10:00.882Z,100742.80
2018-09-21T19:12:28.899Z,100737.14
2018-09-21T19:14:56.576Z,100742.45
2018-09-21T19:17:25.083Z,100734.55
2018-09-21T19:19:53.188Z,100746.06
2018-09-21T19:22:21.536Z,100754.35
2018-09-21T19:24:49.267Z,100753.09
2018-09-21T19:27:17.269Z,100760.64
2018-09-21T19:29:44.954Z,100763.72
2018-09-21T19:32:12.626Z,100764.64
2018-09-21T19:34:40.303Z,100762.05
2018-09-21T19:37:08.363Z,100774.77
2018-09-21T19:39:36.388Z,100776.14
2018-09-21T19:42:04.409Z,100778.38
2018-09-21T19:44:32.378Z,100777.98
2018-09-21T19:47:00.094Z,100783.34
2018-09-21T19:49:27.970Z,100788.60
2018-09-21T19:51:55.663Z,100786.02
2018-09-21T19:54:23.433Z,100793.05
2018-09-21T19:56:51.127Z,100793.13
2018-09-21T19:59:18.796Z,100795.33
2018-09-21T20:01:46.513Z,100789.27
2018-09-21T20:04:14.237Z,100800.77
2018-09-21T20:06:42.246Z,100819.59
2018-09-21T20:09:11.196Z,100830.64
2018-09-21T20:11:39.295Z,100844.69
2018-09-21T20:14:06.986Z,100839.06
2018-09-21T20:16:34.762Z,100847.84
2018-09-21T20:19:02.382Z,100843.02
2018-09-21T20:21:30.285Z,100850.56
2018-09-21T20:23:59.323Z,100830.82
2018-09-21T20:26:27.041Z,100814.67
2018-09-21T20:28:55.061Z,100818.62
2018-09-21T20:31:28.499Z,100824.77
2018-09-21T20:33:56.222Z,100848.05
2018-09-21T20:36:23.938Z,100869.99
2018-09-21T20:38:51.991Z,100862.62
2018-09-21T20:41:19.681Z,100858.71
2018-09-21T20:43:47.393Z,100863.53
2018-09-21T20:46:15.362Z,100872.79
2018-09-21T20:48:43.045Z,100859.27
2018-09-21T20:51:10.794Z,100855.73
2018-09-21T20:53:38.414Z,100851.38
2018-09-21T20:56:06.142Z,100856.17
2018-09-21T20:58:33.818Z,100849.59
2018-09-21T21:01:01.769Z,100850.12
2018-09-21T21:03:29.801Z,100854.06
2018-09-21T21:05:57.544Z,100843.14
2018-09-21T21:08:25.208Z,100849.72
2018-09-21T21:10:53.403Z,100859.81
2018-09-21T21:13:21.115Z,100881.78
2018-09-21T21:15:48.768Z,100889.28
2018-09-21T21:18:16.722Z,100892.83
2018-09-21T21:20:44.409Z,100897.26
2018-09-21T21:23:13.652Z,100883.27
2018-09-21T21:25:41.358Z,100887.25
2018-09-21T21:28:09.090Z,100890.28
2018-09-21T21:30:36.809Z,100906.47
2018-09-21T21:33:04.471Z,100891.20
2018-09-21T21:35:32.149Z,100898.69
2018-09-21T21:38:00.098Z,100904.83
2018-09-21T21:40:27.823Z,100896.94
2018-09-21T21:42:56.082Z,100893.91
2018-09-21T21:45:24.449Z,100885.22
2018-09-21T21:47:52.108Z,100879.09
2018-09-21T21:50:20.110Z,100886.17
2018-09-21T21:52:47.878Z,100883.59
2018-09-21T21:55:15.548Z,100894.11
2018-09-21T21:57:43.303Z,100901.17
2018-09-21T22:00:11.316Z,100900.77
2018-09-21T22:02:39.315Z,100903.41
2018-09-21T22:05:07.022Z,100909.98
2018-09-21T22:07:36.151Z,100910.42
2018-09-21T22:10:05.677Z,100914.36
2018-09-21T22:12:39.009Z,100922.22
2018-09-21T22:15:11.754Z,100912.65
2018-09-21T22:17:39.780Z,100911.34
2018-09-21T22:20:08.146Z,100910.06
2018-09-21T22:22:35.887Z,100898.73
2018-09-21T22:25:03.672Z,100900.09
2018-09-21T22:27:31.549Z,100908.86
2018-09-21T22:29:59.633Z,100919.38
2018-09-21T22:32:27.602Z,100929.03
2018-09-21T22:34:55.273Z,100932.53
2018-09-21T22:37:22.936Z,100930.78
2018-09-21T22:39:51.377Z,100934.80
2018-09-21T22:42:19.103Z,100929.98
2018-09-21T22:44:48.296Z,100925.59
2018-09-21T22:47:15.936Z,100927.35
2018-09-21T22:49:44.706Z,100927.75
2018-09-21T22:52:12.373Z,100929.11
2018-09-21T22:54:40.079Z,100927.39
2018-09-21T22:57:08.111Z,100926.08
2018-09-21T22:59:37.316Z,100922.65
2018-09-21T23:02:05.019Z,100924.59
2018-09-21T23:04:32.830Z,100935.33
2018-09-21T23:07:00.583Z,100938.06
2018-09-21T23:09:28.481Z,100945.52
2018-09-21T23:11:56.234Z,100941.58
2018-09-21T23:14:24.152Z,100953.48
2018-09-21T23:16:51.840Z,100954.36
2018-09-21T23:19:19.632Z,100959.63
2018-09-21T23:21:47.353Z,100967.98
2018-09-21T23:24:15.032Z,100965.36
2018-09-21T23:26:43.267Z,100957.47
2018-09-21T23:29:11.375Z,100956.23
2018-09-21T23:31:39.571Z,100968.06
2018-09-21T23:34:07.244Z,100963.20
2018-09-21T23:36:35.266Z,100964.52
2018-09-21T23:39:03.288Z,100971.97
2018-09-21T23:41:31.282Z,100971.97
2018-09-21T23:43:59.257Z,100977.67
2018-09-21T23:46:26.957Z,100979.90
2018-09-21T23:48:54.738Z,100986.47
2018-09-21T23:51:22.479Z,100991.33
2018-09-21T23:53:50.254Z,100998.34
2018-09-21T23:56:18.179Z,101002.29
2018-09-21T23:58:45.908Z,101001.89
